createdAt,value
2017-02-09T00:01:01.531Z,0
2017-02-09T00:02:12.932Z,0
2017-02-09T00:03:24.538Z,0
2017-02-09T00:04:36.048Z,0
2017-02-09T00:05:47.433Z,0
2017-02-09T00:06:58.833Z,0
2017-02-09T00:08:10.230Z,0
2017-02-09T00:09:21.630Z,0
2017-02-09T00:10:33.032Z,0
2017-02-09T00:11:44.441Z,0
2017-02-09T00:12:55.845Z,0
2017-02-09T00:14:07.448Z,0
2017-02-09T00:15:19.110Z,0
2017-02-09T00:16:30.508Z,0
2017-02-09T00:17:41.915Z,0
2017-02-09T00:18:53.306Z,0
2017-02-09T00:20:04.721Z,0
2017-02-09T00:21:16.125Z,0
2017-02-09T00:22:27.747Z,0
2017-02-09T00:23:39.150Z,0
2017-02-09T00:24:50.548Z,0
2017-02-09T00:26:02.057Z,0
2017-02-09T00:27:13.463Z,0
2017-02-09T00:28:24.869Z,0
2017-02-09T00:29:36.275Z,0
2017-02-09T00:30:47.676Z,0
2017-02-09T00:31:59.279Z,0
2017-02-09T00:33:10.687Z,0
2017-02-09T00:34:22.290Z,0
2017-02-09T00:35:33.691Z,0
2017-02-09T00:36:45.143Z,0
2017-02-09T00:37:56.545Z,0
2017-02-09T00:39:07.945Z,0
2017-02-09T00:40:19.349Z,0
2017-02-09T00:41:30.765Z,0
2017-02-09T00:42:42.160Z,0
2017-02-09T00:43:53.566Z,0
2017-02-09T00:45:04.971Z,0
2017-02-09T00:46:16.380Z,0
2017-02-09T00:47:27.831Z,0
2017-02-09T00:48:39.428Z,0
2017-02-09T00:49:50.829Z,0
2017-02-09T00:51:02.230Z,0
2017-02-09T00:52:13.631Z,0
2017-02-09T00:53:25.269Z,0
2017-02-09T00:54:36.670Z,0
2017-02-09T00:55:48.080Z,0
2017-02-09T00:56:59.487Z,0
2017-02-09T00:58:11.144Z,0
2017-02-09T00:59:22.753Z,0
2017-02-09T01:00:34.348Z,0
2017-02-09T01:01:45.949Z,0
2017-02-09T01:02:57.557Z,0
2017-02-09T01:04:09.159Z,0
2017-02-09T01:05:20.567Z,0
2017-02-09T01:06:31.971Z,0
2017-02-09T01:07:43.378Z,0
2017-02-09T01:08:54.831Z,0
2017-02-09T01:10:06.225Z,0
2017-02-09T01:11:17.630Z,0
2017-02-09T01:12:29.026Z,0
2017-02-09T01:13:40.430Z,0
2017-02-09T01:14:51.835Z,0
2017-02-09T01:16:03.434Z,0
2017-02-09T01:17:14.837Z,0
2017-02-09T01:18:26.242Z,0
2017-02-09T01:19:37.691Z,0
2017-02-09T01:20:49.095Z,0
2017-02-09T01:22:00.504Z,0
2017-02-09T01:23:11.914Z,0
2017-02-09T01:24:23.302Z,0
2017-02-09T01:25:34.705Z,0
2017-02-09T01:26:46.111Z,0
2017-02-09T01:27:57.510Z,0
2017-02-09T01:29:09.115Z,0
2017-02-09T01:30:20.567Z,0
2017-02-09T01:31:31.976Z,0
2017-02-09T01:32:43.368Z,0
2017-02-09T01:33:54.770Z,0
2017-02-09T01:35:06.167Z,0
2017-02-09T01:36:17.574Z,0
2017-02-09T01:37:28.978Z,0
2017-02-09T01:38:40.376Z,0
2017-02-09T01:39:51.766Z,0
2017-02-09T01:41:03.221Z,0
2017-02-09T01:42:14.618Z,0
2017-02-09T01:43:26.020Z,0
2017-02-09T01:44:37.423Z,0
2017-02-09T01:45:48.828Z,0
2017-02-09T01:47:00.226Z,0
2017-02-09T01:48:11.628Z,0
2017-02-09T01:49:23.027Z,0
2017-02-09T01:50:34.432Z,0
2017-02-09T01:51:46.099Z,0
2017-02-09T01:52:57.506Z,0
2017-02-09T01:54:08.911Z,0
2017-02-09T01:55:20.316Z,0
2017-02-09T01:56:31.723Z,0
2017-02-09T01:57:43.135Z,0
2017-02-09T01:58:54.737Z,0
2017-02-09T02:00:06.137Z,0
2017-02-09T02:01:17.537Z,0
2017-02-09T02:02:29.021Z,0
2017-02-09T02:03:40.423Z,0
2017-02-09T02:04:51.824Z,0
2017-02-09T02:06:03.227Z,0
2017-02-09T02:07:14.628Z,0
2017-02-09T02:08:26.031Z,0
2017-02-09T02:09:37.441Z,0
2017-02-09T02:10:48.846Z,0
2017-02-09T02:12:00.253Z,0
2017-02-09T02:13:11.907Z,0
2017-02-09T02:14:23.310Z,0
2017-02-09T02:15:34.916Z,0
2017-02-09T02:16:46.320Z,0
2017-02-09T02:17:57.721Z,0
2017-02-09T02:19:09.136Z,0
2017-02-09T02:20:20.537Z,0
2017-02-09T02:21:31.975Z,0
2017-02-09T02:22:43.357Z,0
2017-02-09T02:23:54.804Z,0
2017-02-09T02:25:06.206Z,0
2017-02-09T02:26:17.609Z,0
2017-02-09T02:27:29.007Z,0
2017-02-09T02:28:40.402Z,0
2017-02-09T02:29:52.006Z,0
2017-02-09T02:31:03.406Z,0
2017-02-09T02:32:15.015Z,0
2017-02-09T02:33:26.412Z,0
2017-02-09T02:34:37.863Z,0
2017-02-09T02:35:49.274Z,0
2017-02-09T02:37:00.685Z,0
2017-02-09T02:38:12.095Z,0
2017-02-09T02:39:23.891Z,0
2017-02-09T02:40:35.695Z,0
2017-02-09T02:41:47.290Z,0
2017-02-09T02:42:58.691Z,0
2017-02-09T02:44:10.096Z,0
2017-02-09T02:45:21.548Z,0
2017-02-09T02:46:32.950Z,0
2017-02-09T02:47:44.345Z,0
2017-02-09T02:48:55.991Z,0
2017-02-09T02:50:07.386Z,0
2017-02-09T02:51:18.784Z,0
2017-02-09T02:52:30.179Z,0
2017-02-09T02:53:41.587Z,0
2017-02-09T02:54:53.177Z,0
2017-02-09T02:56:04.624Z,0
2017-02-09T02:57:16.018Z,0
2017-02-09T02:58:27.421Z,0
2017-02-09T02:59:38.824Z,0
2017-02-09T03:00:50.229Z,0
2017-02-09T03:02:01.637Z,0
2017-02-09T03:03:13.240Z,0
2017-02-09T03:04:24.638Z,0
2017-02-09T03:05:36.069Z,0
2017-02-09T03:06:47.557Z,0
2017-02-09T03:07:58.972Z,0
2017-02-09T03:09:10.376Z,0
2017-02-09T03:10:21.977Z,0
2017-02-09T03:11:33.376Z,0
2017-02-09T03:12:44.777Z,0
2017-02-09T03:13:56.167Z,0
2017-02-09T03:15:07.563Z,0
2017-02-09T03:16:18.992Z,0
2017-02-09T03:17:30.405Z,0
2017-02-09T03:18:41.808Z,0
2017-02-09T03:19:53.407Z,0
2017-02-09T03:21:04.810Z,0
2017-02-09T03:22:16.211Z,0
2017-02-09T03:23:27.613Z,0
2017-02-09T03:24:39.018Z,0
2017-02-09T03:25:50.413Z,0
2017-02-09T03:27:01.813Z,0
2017-02-09T03:28:13.293Z,0
2017-02-09T03:29:24.703Z,0
2017-02-09T03:30:36.113Z,0
2017-02-09T03:31:47.727Z,0
2017-02-09T03:32:59.128Z,0
2017-02-09T03:34:10.534Z,0
2017-02-09T03:35:21.939Z,0
2017-02-09T03:36:33.342Z,0
2017-02-09T03:37:44.743Z,0
2017-02-09T03:38:56.192Z,0
2017-02-09T03:40:07.590Z,0
2017-02-09T03:41:18.989Z,0
2017-02-09T03:42:30.389Z,0
2017-02-09T03:43:41.789Z,0
2017-02-09T03:44:53.186Z,0
2017-02-09T03:46:04.592Z,0
2017-02-09T03:47:15.996Z,0
2017-02-09T03:48:27.396Z,0
2017-02-09T03:49:38.846Z,0
2017-02-09T03:50:50.246Z,0
2017-02-09T03:52:01.854Z,0
2017-02-09T03:53:13.266Z,0
2017-02-09T03:54:24.665Z,0
2017-02-09T03:55:36.113Z,0
2017-02-09T03:56:47.511Z,0
2017-02-09T03:57:58.923Z,0
2017-02-09T03:59:10.325Z,0
2017-02-09T04:00:21.780Z,0
2017-02-09T04:01:33.185Z,0
2017-02-09T04:02:44.599Z,0
2017-02-09T04:03:56.202Z,0
2017-02-09T04:05:07.599Z,0
2017-02-09T04:06:19.204Z,0
2017-02-09T04:07:30.600Z,0
2017-02-09T04:08:42.010Z,0
2017-02-09T04:09:53.811Z,0
2017-02-09T04:11:05.415Z,0
2017-02-09T04:12:16.812Z,0
2017-02-09T04:13:28.215Z,0
2017-02-09T04:14:39.822Z,0
2017-02-09T04:15:51.281Z,0
2017-02-09T04:17:02.887Z,0
2017-02-09T04:18:14.290Z,0
2017-02-09T04:19:25.686Z,0
2017-02-09T04:20:37.284Z,0
2017-02-09T04:21:48.699Z,0
2017-02-09T04:23:00.102Z,0
2017-02-09T04:24:11.499Z,0
2017-02-09T04:25:22.895Z,0
2017-02-09T04:26:34.343Z,0
2017-02-09T04:27:45.744Z,0
2017-02-09T04:28:57.148Z,0
2017-02-09T04:30:08.558Z,0
2017-02-09T04:31:19.949Z,0
2017-02-09T04:32:31.342Z,0
2017-02-09T04:33:42.941Z,0
2017-02-09T04:34:54.339Z,0
2017-02-09T04:36:05.744Z,0
2017-02-09T04:37:17.196Z,0
2017-02-09T04:38:28.793Z,0
2017-02-09T04:39:40.197Z,0
2017-02-09T04:40:51.599Z,0
2017-02-09T04:42:03.193Z,0
2017-02-09T04:43:14.593Z,0
2017-02-09T04:44:25.999Z,0
2017-02-09T04:45:37.401Z,0
2017-02-09T04:46:48.807Z,0
2017-02-09T04:48:00.458Z,0
2017-02-09T04:49:11.859Z,0
2017-02-09T04:50:23.258Z,0
2017-02-09T04:51:34.859Z,0
2017-02-09T04:52:46.250Z,0
2017-02-09T04:53:57.654Z,0
2017-02-09T04:55:09.062Z,0
2017-02-09T04:56:20.467Z,0
2017-02-09T04:57:31.873Z,0
2017-02-09T04:58:43.269Z,0
2017-02-09T04:59:54.669Z,0
2017-02-09T05:01:06.272Z,0
2017-02-09T05:02:17.876Z,0
2017-02-09T05:03:29.326Z,0
2017-02-09T05:04:40.929Z,0
2017-02-09T05:05:52.335Z,0
2017-02-09T05:07:03.946Z,0
2017-02-09T05:08:15.352Z,0
2017-02-09T05:09:26.756Z,0
2017-02-09T05:10:38.163Z,0
2017-02-09T05:11:49.557Z,0
2017-02-09T05:13:00.957Z,0
2017-02-09T05:14:12.411Z,0
2017-02-09T05:15:23.811Z,0
2017-02-09T05:16:35.211Z,0
2017-02-09T05:17:46.615Z,0
2017-02-09T05:18:58.011Z,0
2017-02-09T05:20:09.413Z,0
2017-02-09T05:21:20.810Z,0
2017-02-09T05:22:32.217Z,0
2017-02-09T05:23:43.617Z,0
2017-02-09T05:24:55.069Z,0
2017-02-09T05:26:06.470Z,0
2017-02-09T05:27:17.872Z,0
2017-02-09T05:28:29.281Z,0
2017-02-09T05:29:40.881Z,0
2017-02-09T05:30:52.285Z,0
2017-02-09T05:32:03.687Z,0
2017-02-09T05:33:15.081Z,0
2017-02-09T05:34:26.485Z,0
2017-02-09T05:35:37.943Z,0
2017-02-09T05:36:49.550Z,0
2017-02-09T05:38:00.953Z,0
2017-02-09T05:39:12.363Z,0
2017-02-09T05:40:23.767Z,0
2017-02-09T05:41:35.374Z,0
2017-02-09T05:42:46.779Z,0
2017-02-09T05:43:58.187Z,0
2017-02-09T05:45:09.594Z,0
2017-02-09T05:46:21.047Z,0
2017-02-09T05:47:32.447Z,0
2017-02-09T05:48:43.866Z,0
2017-02-09T05:49:55.274Z,0
2017-02-09T05:51:06.674Z,0
2017-02-09T05:52:18.087Z,0
2017-02-09T05:53:29.695Z,0
2017-02-09T05:54:41.103Z,0
2017-02-09T05:55:52.709Z,0
2017-02-09T05:57:04.113Z,0
2017-02-09T05:58:15.516Z,0
2017-02-09T05:59:27.114Z,0
2017-02-09T06:00:38.515Z,0
2017-02-09T06:01:50.122Z,0
2017-02-09T06:03:01.571Z,0
2017-02-09T06:04:12.982Z,0
2017-02-09T06:05:24.387Z,0
2017-02-09T06:06:35.788Z,0
2017-02-09T06:07:47.191Z,0
2017-02-09T06:08:58.794Z,0
2017-02-09T06:10:10.403Z,0
2017-02-09T06:11:22.013Z,0
2017-02-09T06:12:33.418Z,0
2017-02-09T06:13:44.870Z,0
2017-02-09T06:14:56.275Z,0
2017-02-09T06:16:07.673Z,0
2017-02-09T06:17:19.077Z,0
2017-02-09T06:18:30.479Z,0
2017-02-09T06:19:41.874Z,0
2017-02-09T06:20:53.265Z,0
2017-02-09T06:22:04.665Z,0
2017-02-09T06:23:16.079Z,0
2017-02-09T06:24:27.529Z,0
2017-02-09T06:25:38.925Z,0
2017-02-09T06:26:50.325Z,0
2017-02-09T06:28:01.729Z,0
2017-02-09T06:29:13.129Z,0
2017-02-09T06:30:24.572Z,0
2017-02-09T06:31:35.962Z,0
2017-02-09T06:32:47.370Z,0
2017-02-09T06:33:58.774Z,0
2017-02-09T06:35:10.429Z,0
2017-02-09T06:36:22.033Z,0
2017-02-09T06:37:33.441Z,0
2017-02-09T06:38:44.879Z,0
2017-02-09T06:39:56.281Z,0
2017-02-09T06:41:07.740Z,0
2017-02-09T06:42:19.143Z,0
2017-02-09T06:43:30.750Z,0
2017-02-09T06:44:42.151Z,0
2017-02-09T06:45:53.552Z,0
2017-02-09T06:47:04.960Z,0
2017-02-09T06:48:16.368Z,0
2017-02-09T06:49:27.772Z,0
2017-02-09T06:50:39.378Z,0
2017-02-09T06:51:50.824Z,0
2017-02-09T06:53:02.227Z,0
2017-02-09T06:54:13.631Z,0
2017-02-09T06:55:25.034Z,0
2017-02-09T06:56:36.435Z,0
2017-02-09T06:57:47.841Z,0
2017-02-09T06:58:59.244Z,0
2017-02-09T07:00:10.646Z,5
2017-02-09T07:01:22.043Z,5
2017-02-09T07:02:33.494Z,5
2017-02-09T07:03:44.885Z,5
2017-02-09T07:04:56.289Z,5
2017-02-09T07:06:07.695Z,5
2017-02-09T07:07:19.098Z,5
2017-02-09T07:08:30.506Z,5
2017-02-09T07:09:41.911Z,5
2017-02-09T07:10:53.314Z,10
2017-02-09T07:12:04.714Z,10
2017-02-09T07:13:16.171Z,10
2017-02-09T07:14:27.783Z,10
2017-02-09T07:15:39.375Z,10
2017-02-09T07:16:50.780Z,10
2017-02-09T07:18:02.177Z,15
2017-02-09T07:19:13.575Z,15
2017-02-09T07:20:24.972Z,15
2017-02-09T07:21:36.377Z,15
2017-02-09T07:22:47.776Z,15
2017-02-09T07:23:59.422Z,15
2017-02-09T07:25:10.818Z,20
2017-02-09T07:26:22.217Z,20
2017-02-09T07:27:33.615Z,20
2017-02-09T07:28:45.030Z,20
2017-02-09T07:29:56.428Z,25
2017-02-09T07:31:08.026Z,25
2017-02-09T07:32:19.423Z,25
2017-02-09T07:33:30.825Z,25
2017-02-09T07:34:42.278Z,25
2017-02-09T07:35:53.878Z,25
2017-02-09T07:37:05.281Z,25
2017-02-09T07:38:16.680Z,30
2017-02-09T07:39:28.087Z,30
2017-02-09T07:40:39.495Z,30
2017-02-09T07:41:50.908Z,30
2017-02-09T07:43:02.308Z,30
2017-02-09T07:44:13.912Z,30
2017-02-09T07:45:25.364Z,35
2017-02-09T07:46:36.760Z,35
2017-02-09T07:47:48.162Z,35
2017-02-09T07:48:59.563Z,35
2017-02-09T07:50:10.969Z,35
2017-02-09T07:51:22.372Z,35
2017-02-09T07:52:33.776Z,40
2017-02-09T07:53:45.173Z,40
2017-02-09T07:54:56.586Z,40
2017-02-09T07:56:08.036Z,40
2017-02-09T07:57:19.434Z,45
2017-02-09T07:58:30.832Z,45
2017-02-09T07:59:42.245Z,45
2017-02-09T08:00:53.651Z,45
2017-02-09T08:02:05.048Z,45
2017-02-09T08:03:16.652Z,45
2017-02-09T08:04:28.249Z,45
2017-02-09T08:05:39.653Z,50
2017-02-09T08:06:51.119Z,50
2017-02-09T08:08:02.527Z,50
2017-02-09T08:09:13.924Z,55
2017-02-09T08:10:25.330Z,55
2017-02-09T08:11:36.738Z,60
2017-02-09T08:12:48.146Z,60
2017-02-09T08:13:59.549Z,65
2017-02-09T08:15:10.955Z,65
2017-02-09T08:16:22.561Z,70
2017-02-09T08:17:34.011Z,70
2017-02-09T08:18:45.421Z,70
2017-02-09T08:19:56.823Z,65
2017-02-09T08:21:08.237Z,70
2017-02-09T08:22:19.645Z,65
2017-02-09T08:23:31.099Z,65
2017-02-09T08:24:42.505Z,65
2017-02-09T08:25:53.908Z,65
2017-02-09T08:27:05.313Z,65
2017-02-09T08:28:16.728Z,70
2017-02-09T08:29:28.129Z,75
2017-02-09T08:30:39.534Z,75
2017-02-09T08:31:51.135Z,75
2017-02-09T08:33:02.739Z,75
2017-02-09T08:34:14.189Z,70
2017-02-09T08:35:25.787Z,75
2017-02-09T08:36:37.193Z,75
2017-02-09T08:37:48.994Z,75
2017-02-09T08:39:00.598Z,80
2017-02-09T08:40:11.994Z,75
2017-02-09T08:41:23.401Z,75
2017-02-09T08:42:34.805Z,75
2017-02-09T08:43:46.207Z,75
2017-02-09T08:44:57.660Z,75
2017-02-09T08:46:09.258Z,75
2017-02-09T08:47:20.660Z,75
2017-02-09T08:48:32.066Z,70
2017-02-09T08:49:43.667Z,70
2017-02-09T08:50:55.277Z,75
2017-02-09T08:52:06.680Z,80
2017-02-09T08:53:18.079Z,85
2017-02-09T08:54:29.487Z,85
2017-02-09T08:55:40.966Z,85
2017-02-09T08:56:52.376Z,85
2017-02-09T08:58:03.990Z,85
2017-02-09T08:59:15.590Z,85
2017-02-09T09:00:26.995Z,85
2017-02-09T09:01:38.410Z,90
2017-02-09T09:02:49.811Z,90
2017-02-09T09:04:01.218Z,90
2017-02-09T09:05:12.629Z,90
2017-02-09T09:06:24.082Z,90
2017-02-09T09:07:35.691Z,90
2017-02-09T09:08:47.092Z,90
2017-02-09T09:09:58.692Z,90
2017-02-09T09:11:10.106Z,90
2017-02-09T09:12:21.708Z,90
2017-02-09T09:13:33.312Z,95
2017-02-09T09:14:44.715Z,100
2017-02-09T09:15:56.324Z,105
2017-02-09T09:17:07.778Z,105
2017-02-09T09:18:19.207Z,110
2017-02-09T09:19:30.608Z,105
2017-02-09T09:20:42.008Z,110
2017-02-09T09:21:53.429Z,110
2017-02-09T09:23:04.831Z,115
2017-02-09T09:24:16.231Z,115
2017-02-09T09:25:27.629Z,120
2017-02-09T09:26:39.067Z,120
2017-02-09T09:27:50.521Z,120
2017-02-09T09:29:01.930Z,120
2017-02-09T09:30:13.329Z,120
2017-02-09T09:31:24.939Z,120
2017-02-09T09:32:36.349Z,115
2017-02-09T09:33:47.753Z,120
2017-02-09T09:34:59.154Z,125
2017-02-09T09:36:10.752Z,125
2017-02-09T09:37:22.159Z,130
2017-02-09T09:38:33.619Z,130
2017-02-09T09:39:45.024Z,125
2017-02-09T09:40:56.417Z,125
2017-02-09T09:42:07.821Z,125
2017-02-09T09:43:19.220Z,130
2017-02-09T09:44:30.627Z,130
2017-02-09T09:45:42.434Z,130
2017-02-09T09:46:53.847Z,130
2017-02-09T09:48:05.235Z,135
2017-02-09T09:49:16.685Z,140
2017-02-09T09:50:28.087Z,140
2017-02-09T09:51:39.497Z,140
2017-02-09T09:52:51.104Z,140
2017-02-09T09:54:02.513Z,145
2017-02-09T09:55:13.908Z,140
2017-02-09T09:56:25.517Z,135
2017-02-09T09:57:37.120Z,150
2017-02-09T09:58:48.730Z,150
2017-02-09T10:00:00.380Z,155
2017-02-09T10:01:11.981Z,160
2017-02-09T10:02:23.394Z,175
2017-02-09T10:03:34.799Z,175
2017-02-09T10:04:46.249Z,170
2017-02-09T10:05:57.653Z,160
2017-02-09T10:07:09.059Z,155
2017-02-09T10:08:20.461Z,155
2017-02-09T10:09:31.870Z,150
2017-02-09T10:10:43.530Z,150
2017-02-09T10:11:55.132Z,150
2017-02-09T10:13:06.530Z,150
2017-02-09T10:14:17.931Z,155
2017-02-09T10:15:29.537Z,165
2017-02-09T10:16:40.938Z,180
2017-02-09T10:17:52.342Z,180
2017-02-09T10:19:03.734Z,190
2017-02-09T10:20:15.141Z,190
2017-02-09T10:21:26.592Z,195
2017-02-09T10:22:38.000Z,195
2017-02-09T10:23:49.401Z,200
2017-02-09T10:25:01.011Z,195
2017-02-09T10:26:12.413Z,190
2017-02-09T10:27:23.815Z,195
2017-02-09T10:28:35.220Z,195
2017-02-09T10:29:46.629Z,195
2017-02-09T10:30:58.234Z,200
2017-02-09T10:32:09.682Z,205
2017-02-09T10:33:21.088Z,205
2017-02-09T10:34:32.492Z,215
2017-02-09T10:35:43.894Z,215
2017-02-09T10:36:55.304Z,215
2017-02-09T10:38:06.762Z,225
2017-02-09T10:39:18.374Z,230
2017-02-09T10:40:29.776Z,225
2017-02-09T10:41:41.387Z,220
2017-02-09T10:42:52.790Z,220
2017-02-09T10:44:04.191Z,210
2017-02-09T10:45:15.796Z,210
2017-02-09T10:46:27.207Z,210
2017-02-09T10:47:38.606Z,220
2017-02-09T10:48:50.061Z,220
2017-02-09T10:50:01.459Z,220
2017-02-09T10:51:13.060Z,225
2017-02-09T10:52:24.467Z,225
2017-02-09T10:53:35.870Z,230
2017-02-09T10:54:47.280Z,225
2017-02-09T10:55:58.684Z,215
2017-02-09T10:57:10.093Z,215
2017-02-09T10:58:21.690Z,215
2017-02-09T10:59:33.146Z,215
2017-02-09T11:00:44.552Z,215
2017-02-09T11:01:55.954Z,220
2017-02-09T11:03:07.357Z,220
2017-02-09T11:04:18.957Z,220
2017-02-09T11:05:30.385Z,215
2017-02-09T11:06:41.994Z,215
2017-02-09T11:07:53.398Z,215
2017-02-09T11:09:05.000Z,215
2017-02-09T11:10:16.447Z,220
2017-02-09T11:11:27.854Z,225
2017-02-09T11:12:39.253Z,225
2017-02-09T11:13:50.652Z,230
2017-02-09T11:15:02.052Z,225
2017-02-09T11:16:13.447Z,225
2017-02-09T11:17:24.857Z,230
2017-02-09T11:18:36.266Z,235
2017-02-09T11:19:47.664Z,240
2017-02-09T11:20:59.120Z,245
2017-02-09T11:22:10.717Z,240
2017-02-09T11:23:22.130Z,240
2017-02-09T11:24:33.533Z,235
2017-02-09T11:25:45.141Z,225
2017-02-09T11:26:56.541Z,230
2017-02-09T11:28:07.945Z,225
2017-02-09T11:29:19.345Z,225
2017-02-09T11:30:30.749Z,225
2017-02-09T11:31:42.408Z,235
2017-02-09T11:32:53.809Z,230
2017-02-09T11:34:05.212Z,235
2017-02-09T11:35:17.015Z,245
2017-02-09T11:36:28.419Z,250
2017-02-09T11:37:39.822Z,255
2017-02-09T11:38:51.422Z,255
2017-02-09T11:40:03.021Z,260
2017-02-09T11:41:14.424Z,260
2017-02-09T11:42:25.884Z,260
2017-02-09T11:43:37.288Z,265
2017-02-09T11:44:48.690Z,275
2017-02-09T11:46:00.091Z,275
2017-02-09T11:47:11.487Z,260
2017-02-09T11:48:23.140Z,260
2017-02-09T11:49:34.740Z,260
2017-02-09T11:50:46.143Z,260
2017-02-09T11:51:57.551Z,260
2017-02-09T11:53:09.005Z,270
2017-02-09T11:54:20.399Z,280
2017-02-09T11:55:31.804Z,280
2017-02-09T11:56:43.402Z,285
2017-02-09T11:57:54.810Z,280
2017-02-09T11:59:06.419Z,285
2017-02-09T12:00:17.818Z,285
2017-02-09T12:01:29.230Z,280
2017-02-09T12:02:40.637Z,275
2017-02-09T12:03:52.092Z,270
2017-02-09T12:05:03.489Z,265
2017-02-09T12:06:15.095Z,265
2017-02-09T12:07:26.513Z,265
2017-02-09T12:08:37.922Z,265
2017-02-09T12:09:49.323Z,260
2017-02-09T12:11:00.728Z,255
2017-02-09T12:12:12.135Z,255
2017-02-09T12:13:23.540Z,260
2017-02-09T12:14:34.999Z,270
2017-02-09T12:15:46.412Z,270
2017-02-09T12:16:58.020Z,265
2017-02-09T12:18:09.430Z,265
2017-02-09T12:19:20.860Z,265
2017-02-09T12:20:32.274Z,265
2017-02-09T12:21:43.685Z,260
2017-02-09T12:22:55.083Z,250
2017-02-09T12:24:06.492Z,255
2017-02-09T12:25:18.097Z,260
2017-02-09T12:26:29.701Z,265
2017-02-09T12:27:41.315Z,260
2017-02-09T12:28:52.723Z,260
2017-02-09T12:30:04.130Z,265
2017-02-09T12:31:15.586Z,265
2017-02-09T12:32:26.984Z,265
2017-02-09T12:33:38.398Z,265
2017-02-09T12:34:49.796Z,270
2017-02-09T12:36:01.202Z,280
2017-02-09T12:37:12.608Z,285
2017-02-09T12:38:24.014Z,285
2017-02-09T12:39:35.424Z,280
2017-02-09T12:40:47.031Z,285
2017-02-09T12:41:58.477Z,285
2017-02-09T12:43:09.890Z,280
2017-02-09T12:44:21.295Z,265
2017-02-09T12:45:32.693Z,265
2017-02-09T12:46:44.098Z,260
2017-02-09T12:47:55.703Z,260
2017-02-09T12:49:07.111Z,265
2017-02-09T12:50:18.517Z,275
2017-02-09T12:51:29.920Z,275
2017-02-09T12:52:41.390Z,275
2017-02-09T12:53:52.791Z,285
2017-02-09T12:55:04.191Z,290
2017-02-09T12:56:15.792Z,285
2017-02-09T12:57:27.196Z,270
2017-02-09T12:58:38.603Z,270
2017-02-09T12:59:50.013Z,270
2017-02-09T13:01:01.421Z,270
2017-02-09T13:02:12.825Z,270
2017-02-09T13:03:24.279Z,270
2017-02-09T13:04:35.694Z,265
2017-02-09T13:05:47.099Z,260
2017-02-09T13:06:58.502Z,250
2017-02-09T13:08:09.903Z,245
2017-02-09T13:09:21.314Z,250
2017-02-09T13:10:32.926Z,250
2017-02-09T13:11:44.327Z,250
2017-02-09T13:12:55.736Z,250
2017-02-09T13:14:07.191Z,245
2017-02-09T13:15:18.588Z,250
2017-02-09T13:16:29.998Z,260
2017-02-09T13:17:41.403Z,270
2017-02-09T13:18:52.843Z,270
2017-02-09T13:20:04.241Z,270
2017-02-09T13:21:15.650Z,275
2017-02-09T13:22:27.069Z,275
2017-02-09T13:23:38.477Z,275
2017-02-09T13:24:49.927Z,280
2017-02-09T13:26:01.339Z,290
2017-02-09T13:27:12.750Z,295
2017-02-09T13:28:24.363Z,300
2017-02-09T13:29:35.770Z,305
2017-02-09T13:30:47.168Z,310
2017-02-09T13:31:58.976Z,315
2017-02-09T13:33:10.378Z,300
2017-02-09T13:34:21.786Z,290
2017-02-09T13:35:33.243Z,280
2017-02-09T13:36:44.646Z,270
2017-02-09T13:37:56.055Z,260
2017-02-09T13:39:07.464Z,260
2017-02-09T13:40:18.862Z,255
2017-02-09T13:41:30.273Z,255
2017-02-09T13:42:41.682Z,255
2017-02-09T13:43:53.088Z,250
2017-02-09T13:45:04.494Z,245
2017-02-09T13:46:15.943Z,235
2017-02-09T13:47:27.343Z,225
2017-02-09T13:48:38.739Z,215
2017-02-09T13:49:50.140Z,210
2017-02-09T13:51:01.540Z,205
2017-02-09T13:52:13.186Z,200
2017-02-09T13:53:24.595Z,195
2017-02-09T13:54:36.197Z,190
2017-02-09T13:55:47.604Z,185
2017-02-09T13:56:59.213Z,175
2017-02-09T13:58:10.659Z,170
2017-02-09T13:59:22.066Z,160
2017-02-09T14:00:33.467Z,160
2017-02-09T14:01:44.873Z,165
2017-02-09T14:02:56.733Z,170
2017-02-09T14:04:08.140Z,175
2017-02-09T14:05:19.542Z,175
2017-02-09T14:06:30.945Z,175
2017-02-09T14:07:42.347Z,185
2017-02-09T14:08:53.748Z,185
2017-02-09T14:10:05.150Z,185
2017-02-09T14:11:16.546Z,175
2017-02-09T14:12:27.948Z,170
2017-02-09T14:13:39.402Z,170
2017-02-09T14:14:50.805Z,170
2017-02-09T14:16:02.210Z,175
2017-02-09T14:17:13.618Z,175
2017-02-09T14:18:25.018Z,175
2017-02-09T14:19:36.422Z,180
2017-02-09T14:20:47.824Z,180
2017-02-09T14:21:59.226Z,175
2017-02-09T14:23:10.632Z,175
2017-02-09T14:24:22.281Z,175
2017-02-09T14:25:33.687Z,180
2017-02-09T14:26:45.092Z,190
2017-02-09T14:27:56.498Z,195
2017-02-09T14:29:07.900Z,200
2017-02-09T14:30:19.304Z,205
2017-02-09T14:31:30.712Z,205
2017-02-09T14:32:42.118Z,205
2017-02-09T14:33:53.720Z,200
2017-02-09T14:35:05.184Z,195
2017-02-09T14:36:16.598Z,190
2017-02-09T14:37:28.003Z,190
2017-02-09T14:38:39.415Z,200
2017-02-09T14:39:50.820Z,200
2017-02-09T14:41:02.212Z,200
2017-02-09T14:42:13.818Z,195
2017-02-09T14:43:25.223Z,195
2017-02-09T14:44:36.636Z,185
2017-02-09T14:45:48.087Z,170
2017-02-09T14:46:59.494Z,165
2017-02-09T14:48:10.903Z,160
2017-02-09T14:49:22.307Z,155
2017-02-09T14:50:33.713Z,150
2017-02-09T14:51:45.318Z,145
2017-02-09T14:52:56.722Z,140
2017-02-09T14:54:08.330Z,135
2017-02-09T14:55:19.732Z,135
2017-02-09T14:56:31.388Z,140
2017-02-09T14:57:42.825Z,145
2017-02-09T14:58:54.236Z,145
2017-02-09T15:00:05.652Z,140
2017-02-09T15:01:17.065Z,135
2017-02-09T15:02:28.468Z,130
2017-02-09T15:03:40.075Z,130
2017-02-09T15:04:51.492Z,125
2017-02-09T15:06:02.900Z,125
2017-02-09T15:07:14.357Z,125
2017-02-09T15:08:25.775Z,125
2017-02-09T15:09:37.191Z,125
2017-02-09T15:10:48.803Z,125
2017-02-09T15:12:00.200Z,120
2017-02-09T15:13:11.608Z,115
2017-02-09T15:14:23.015Z,115
2017-02-09T15:15:34.627Z,110
2017-02-09T15:16:46.036Z,110
2017-02-09T15:17:57.696Z,105
2017-02-09T15:19:09.306Z,105
2017-02-09T15:20:20.708Z,105
2017-02-09T15:21:32.113Z,100
2017-02-09T15:22:43.518Z,95
2017-02-09T15:23:55.120Z,95
2017-02-09T15:25:06.721Z,95
2017-02-09T15:26:18.326Z,90
2017-02-09T15:27:29.731Z,90
2017-02-09T15:28:41.394Z,85
2017-02-09T15:29:53.000Z,85
2017-02-09T15:31:04.406Z,85
2017-02-09T15:32:15.805Z,85
2017-02-09T15:33:27.617Z,80
2017-02-09T15:34:39.020Z,80
2017-02-09T15:35:50.423Z,75
2017-02-09T15:37:01.837Z,75
2017-02-09T15:38:13.251Z,70
2017-02-09T15:39:24.709Z,70
2017-02-09T15:40:36.111Z,65
2017-02-09T15:41:47.514Z,65
2017-02-09T15:42:58.915Z,60
2017-02-09T15:44:10.515Z,60
2017-02-09T15:45:22.175Z,60
2017-02-09T15:46:33.588Z,55
2017-02-09T15:47:44.992Z,55
2017-02-09T15:48:56.400Z,50
2017-02-09T15:50:07.860Z,50
2017-02-09T15:51:19.270Z,50
2017-02-09T15:52:30.884Z,45
2017-02-09T15:53:42.292Z,45
2017-02-09T15:54:53.704Z,45
2017-02-09T15:56:05.097Z,45
2017-02-09T15:57:16.492Z,40
2017-02-09T15:58:27.890Z,40
2017-02-09T15:59:39.295Z,40
2017-02-09T16:00:50.749Z,40
2017-02-09T16:02:02.142Z,40
2017-02-09T16:03:13.572Z,35
2017-02-09T16:04:25.171Z,35
2017-02-09T16:05:36.570Z,30
2017-02-09T16:06:47.973Z,30
2017-02-09T16:07:59.376Z,30
2017-02-09T16:09:10.786Z,25
2017-02-09T16:10:22.188Z,25
2017-02-09T16:11:33.647Z,20
2017-02-09T16:12:45.048Z,20
2017-02-09T16:13:56.450Z,20
2017-02-09T16:15:07.855Z,15
2017-02-09T16:16:19.266Z,15
2017-02-09T16:17:30.659Z,15
2017-02-09T16:18:42.062Z,15
2017-02-09T16:19:53.472Z,10
2017-02-09T16:21:04.879Z,10
2017-02-09T16:22:16.287Z,10
2017-02-09T16:23:27.686Z,10
2017-02-09T16:24:39.090Z,10
2017-02-09T16:25:50.489Z,5
2017-02-09T16:27:01.897Z,5
2017-02-09T16:28:13.300Z,5
2017-02-09T16:29:24.717Z,5
2017-02-09T16:30:36.127Z,5
2017-02-09T16:31:47.528Z,5
2017-02-09T16:32:58.984Z,5
2017-02-09T16:34:10.381Z,0
2017-02-09T16:35:21.778Z,0
2017-02-09T16:36:33.390Z,0
2017-02-09T16:37:44.793Z,0
2017-02-09T16:38:56.245Z,0
2017-02-09T16:40:07.842Z,0
2017-02-09T16:41:19.250Z,0
2017-02-09T16:42:30.861Z,0
2017-02-09T16:43:42.309Z,0
2017-02-09T16:44:53.713Z,0
2017-02-09T16:46:05.117Z,0
2017-02-09T16:47:16.725Z,0
2017-02-09T16:48:28.335Z,0
2017-02-09T16:49:39.948Z,0
2017-02-09T16:50:51.359Z,0
2017-02-09T16:52:02.765Z,0
2017-02-09T16:53:14.174Z,0
2017-02-09T16:54:25.626Z,0
2017-02-09T16:55:37.231Z,0
2017-02-09T16:56:48.635Z,0
2017-02-09T16:58:00.037Z,0
2017-02-09T16:59:11.432Z,0
2017-02-09T17:00:22.835Z,0
2017-02-09T17:01:34.235Z,0
2017-02-09T17:02:45.643Z,0